createdAt,value
2018-08-28T00:03:00.771Z,3.37
2018-08-28T00:08:29.987Z,4.90
2018-08-28T00:13:59.192Z,6.53
2018-08-28T00:19:29.508Z,3.33
2018-08-28T00:24:58.726Z,4.70
2018-08-28T00:30:28.082Z,5.17
2018-08-28T00:35:57.284Z,4.45
2018-08-28T00:41:26.531Z,4.53
2018-08-28T00:46:55.772Z,6.00
2018-08-28T00:52:25.061Z,3.77
2018-08-28T00:57:54.219Z,2.52
2018-08-28T01:03:23.423Z,3.30
2018-08-28T01:08:52.624Z,3.55
2018-08-28T01:14:21.903Z,3.80
2018-08-28T01:19:51.092Z,10.05
2018-08-28T01:25:20.356Z,3.42
2018-08-28T01:30:49.617Z,2.83
2018-08-28T01:36:18.790Z,2.58
2018-08-28T01:41:48.081Z,4.05
2018-08-28T01:47:17.328Z,3.60
2018-08-28T01:52:46.528Z,3.83
2018-08-28T01:58:16.023Z,3.50
2018-08-28T02:03:45.284Z,3.30
2018-08-28T02:09:15.200Z,5.30
2018-08-28T02:14:44.468Z,4.45
2018-08-28T02:20:13.758Z,2.72
2018-08-28T02:25:43.019Z,4.15
2018-08-28T02:31:12.976Z,3.45
2018-08-28T02:36:42.300Z,4.75
2018-08-28T02:42:11.533Z,6.35
2018-08-28T02:47:43.656Z,4.90
2018-08-28T02:53:12.857Z,6.62
2018-08-28T02:58:42.061Z,3.67
2018-08-28T03:04:11.252Z,2.83
2018-08-28T03:09:40.462Z,3.50
2018-08-28T03:15:09.947Z,3.52
2018-08-28T03:20:39.405Z,2.95
2018-08-28T03:26:09.172Z,2.87
2018-08-28T03:31:38.401Z,3.15
2018-08-28T03:37:07.709Z,6.53
2018-08-28T03:42:37.058Z,3.27
2018-08-28T03:48:06.611Z,6.53
2018-08-28T03:53:35.860Z,4.00
2018-08-28T03:59:05.535Z,4.58
2018-08-28T04:04:34.856Z,4.25
2018-08-28T04:10:04.184Z,3.12
2018-08-28T04:15:34.028Z,6.05
2018-08-28T04:21:03.989Z,4.97
2018-08-28T04:26:33.339Z,4.97
2018-08-28T04:32:02.625Z,5.42
2018-08-28T04:37:31.846Z,4.62
2018-08-28T04:43:01.076Z,4.15
2018-08-28T04:48:30.380Z,4.90
2018-08-28T04:54:00.351Z,13.43
2018-08-28T04:59:29.595Z,8.13
2018-08-28T05:04:58.908Z,4.10
2018-08-28T05:10:28.091Z,6.90
2018-08-28T05:15:57.359Z,6.42
2018-08-28T05:21:26.526Z,3.85
2018-08-28T05:26:55.792Z,8.68
2018-08-28T05:32:25.041Z,7.80
2018-08-28T05:37:54.301Z,4.40
2018-08-28T05:43:23.509Z,5.15
2018-08-28T05:48:56.450Z,4.58
2018-08-28T05:54:25.691Z,5.58
2018-08-28T05:59:54.931Z,4.10
2018-08-28T06:05:24.185Z,5.17
2018-08-28T06:10:53.456Z,3.50
2018-08-28T06:16:22.664Z,13.00
2018-08-28T06:21:51.884Z,8.05
2018-08-28T06:27:21.076Z,7.35
2018-08-28T06:32:50.304Z,5.65
2018-08-28T06:38:19.524Z,5.95
2018-08-28T06:43:48.790Z,4.42
2018-08-28T06:49:18.019Z,8.60
2018-08-28T06:54:47.257Z,4.65
2018-08-28T07:00:16.500Z,6.42
2018-08-28T07:05:45.698Z,11.88
2018-08-28T07:11:14.923Z,5.58
2018-08-28T07:16:44.148Z,8.23
2018-08-28T07:22:13.381Z,6.45
2018-08-28T07:27:42.695Z,6.47
2018-08-28T07:33:11.897Z,5.15
2018-08-28T07:38:41.137Z,7.12
2018-08-28T07:44:10.383Z,4.67
2018-08-28T07:49:39.696Z,8.93
2018-08-28T07:55:09.096Z,5.37
2018-08-28T08:00:38.417Z,5.87
2018-08-28T08:06:07.737Z,6.12
2018-08-28T08:11:37.196Z,4.65
2018-08-28T08:17:06.705Z,13.30
2018-08-28T08:22:35.948Z,4.25
2018-08-28T08:28:05.461Z,5.35
2018-08-28T08:33:34.666Z,4.15
2018-08-28T08:39:05.100Z,7.62
2018-08-28T08:44:34.358Z,5.80
2018-08-28T08:50:03.637Z,6.70
2018-08-28T08:55:32.868Z,5.60
2018-08-28T09:01:02.086Z,5.45
2018-08-28T09:06:31.334Z,6.40
2018-08-28T09:12:00.684Z,7.85
2018-08-28T09:17:29.941Z,7.37
2018-08-28T09:22:59.147Z,8.35
2018-08-28T09:28:28.395Z,3.95
2018-08-28T09:33:57.629Z,7.45
2018-08-28T09:39:26.912Z,5.28
2018-08-28T09:44:56.113Z,9.00
2018-08-28T09:50:25.410Z,3.70
2018-08-28T09:55:54.539Z,4.55
2018-08-28T10:01:29.083Z,8.30
2018-08-28T10:06:58.328Z,4.78
2018-08-28T10:12:27.496Z,5.05
2018-08-28T10:17:56.719Z,8.43
2018-08-28T10:23:26.008Z,4.83
2018-08-28T10:28:55.227Z,6.17
2018-08-28T10:34:24.404Z,5.47
2018-08-28T10:39:53.619Z,5.42
2018-08-28T10:45:22.862Z,5.42
2018-08-28T10:50:52.098Z,5.42
2018-08-28T10:56:21.339Z,6.83
2018-08-28T11:01:50.529Z,6.40
2018-08-28T11:07:19.764Z,8.30
2018-08-28T11:12:49.012Z,5.00
2018-08-28T11:18:23.316Z,7.33
2018-08-28T11:23:52.514Z,10.38
2018-08-28T11:29:21.703Z,7.05
2018-08-28T11:34:50.948Z,6.78
2018-08-28T11:40:20.200Z,6.92
2018-08-28T11:45:49.468Z,5.45
2018-08-28T11:51:18.697Z,6.35
2018-08-28T11:56:47.870Z,6.85
2018-08-28T12:02:17.116Z,7.87
2018-08-28T12:07:46.500Z,7.50
2018-08-28T12:13:15.727Z,7.90
2018-08-28T12:18:44.985Z,6.53
2018-08-28T12:24:14.256Z,7.85
2018-08-28T12:29:43.518Z,7.20
2018-08-28T12:35:12.685Z,7.17
2018-08-28T12:40:41.952Z,7.50
2018-08-28T12:46:11.265Z,10.75
2018-08-28T12:51:41.644Z,6.87
2018-08-28T12:57:10.981Z,9.33
2018-08-28T13:02:40.251Z,11.20
2018-08-28T13:08:09.648Z,8.33
2018-08-28T13:13:38.947Z,7.58
2018-08-28T13:19:08.424Z,8.08
2018-08-28T13:24:37.736Z,9.60
2018-08-28T13:30:07.173Z,9.55
2018-08-28T13:35:36.476Z,11.68
2018-08-28T13:41:05.887Z,10.80
2018-08-28T13:46:35.197Z,7.10
2018-08-28T13:52:04.529Z,8.38
2018-08-28T13:57:33.828Z,8.48
2018-08-28T14:03:04.296Z,9.43
2018-08-28T14:08:33.619Z,9.33
2018-08-28T14:14:03.064Z,10.90
2018-08-28T14:19:32.163Z,9.18
2018-08-28T14:25:01.383Z,7.37
2018-08-28T14:30:30.608Z,11.55
2018-08-28T14:35:59.875Z,8.43
2018-08-28T14:41:29.143Z,10.10
2018-08-28T14:46:58.367Z,11.25
2018-08-28T14:52:27.632Z,7.17
2018-08-28T14:57:56.900Z,9.48
2018-08-28T15:03:26.368Z,9.03
2018-08-28T15:08:55.614Z,9.05
2018-08-28T15:14:24.936Z,9.58
2018-08-28T15:19:54.260Z,9.78
2018-08-28T15:25:23.501Z,11.55
2018-08-28T15:30:52.764Z,9.78
2018-08-28T15:36:22.007Z,10.55
2018-08-28T15:41:51.251Z,15.15
2018-08-28T15:47:20.545Z,10.48
2018-08-28T15:52:50.079Z,11.15
2018-08-28T15:58:19.296Z,9.20
2018-08-28T16:03:48.543Z,10.45
2018-08-28T16:09:17.772Z,9.90
2018-08-28T16:14:47.019Z,14.30
2018-08-28T16:20:16.284Z,11.40
2018-08-28T16:25:45.500Z,9.58
2018-08-28T16:31:14.828Z,12.47
2018-08-28T16:36:44.176Z,13.32
2018-08-28T16:42:13.553Z,12.40
2018-08-28T16:47:42.865Z,13.40
2018-08-28T16:53:13.563Z,12.95
2018-08-28T16:58:46.917Z,10.10
2018-08-28T17:04:16.711Z,14.40
2018-08-28T17:09:46.206Z,13.20
2018-08-28T17:15:15.471Z,9.35
2018-08-28T17:20:44.848Z,9.10
2018-08-28T17:26:14.262Z,10.32
2018-08-28T17:31:43.707Z,14.47
2018-08-28T17:37:13.096Z,14.23
2018-08-28T17:42:42.402Z,15.88
2018-08-28T17:48:11.683Z,14.07
2018-08-28T17:53:40.939Z,13.83
2018-08-28T17:59:10.239Z,11.25
2018-08-28T18:04:39.551Z,12.10
2018-08-28T18:10:08.871Z,12.07
2018-08-28T18:15:38.590Z,17.60
2018-08-28T18:21:07.979Z,12.10
2018-08-28T18:26:37.313Z,15.20
2018-08-28T18:32:06.776Z,10.90
2018-08-28T18:37:36.311Z,12.50
2018-08-28T18:43:05.752Z,15.10
2018-08-28T18:48:35.153Z,13.60
2018-08-28T18:54:04.685Z,14.13
2018-08-28T18:59:34.362Z,12.93
2018-08-28T19:05:05.576Z,15.45
2018-08-28T19:10:35.837Z,18.05
2018-08-28T19:16:05.170Z,15.88
2018-08-28T19:21:34.561Z,15.10
2018-08-28T19:27:05.140Z,16.55
2018-08-28T19:32:35.918Z,20.23
2018-08-28T19:38:05.571Z,16.75
2018-08-28T19:43:35.215Z,17.50
2018-08-28T19:49:04.509Z,15.20
2018-08-28T19:54:34.054Z,15.03
2018-08-28T20:00:04.329Z,14.23
2018-08-28T20:05:33.673Z,26.37
2018-08-28T20:11:03.301Z,21.97
2018-08-28T20:16:32.941Z,19.82
2018-08-28T20:22:02.308Z,16.50
2018-08-28T20:27:31.552Z,20.62
2018-08-28T20:33:01.341Z,17.77
2018-08-28T20:38:30.682Z,15.70
2018-08-28T20:43:59.891Z,16.10
2018-08-28T20:49:29.197Z,13.68
2018-08-28T20:54:59.528Z,17.02
2018-08-28T21:00:31.168Z,17.42
2018-08-28T21:06:00.432Z,16.90
2018-08-28T21:11:29.651Z,20.88
2018-08-28T21:17:00.203Z,17.87
2018-08-28T21:22:29.877Z,16.90
2018-08-28T21:27:59.244Z,19.17
2018-08-28T21:33:28.575Z,15.45
2018-08-28T21:38:57.887Z,15.38
2018-08-28T21:44:27.172Z,16.57
2018-08-28T21:49:56.427Z,18.05
2018-08-28T21:55:26.220Z,22.48
2018-08-28T22:01:00.739Z,18.35
2018-08-28T22:06:35.388Z,20.20
2018-08-28T22:12:05.013Z,17.00
2018-08-28T22:17:34.362Z,20.55
2018-08-28T22:23:03.679Z,19.95
2018-08-28T22:28:32.916Z,17.07
2018-08-28T22:34:02.259Z,19.48
2018-08-28T22:39:31.635Z,17.32
2018-08-28T22:45:05.901Z,16.27
2018-08-28T22:50:35.497Z,19.87
2018-08-28T22:56:05.350Z,16.97
2018-08-28T23:01:34.692Z,14.93
2018-08-28T23:07:03.983Z,17.10
2018-08-28T23:12:33.475Z,15.23
2018-08-28T23:18:02.680Z,17.67
2018-08-28T23:23:31.981Z,17.60
2018-08-28T23:29:01.220Z,15.75
2018-08-28T23:34:30.468Z,19.87
2018-08-28T23:39:59.671Z,17.30
2018-08-28T23:45:28.953Z,14.55
2018-08-28T23:50:58.147Z,13.20
2018-08-28T23:56:27.468Z,16.27
